createdAt,value
2018-10-04T00:00:47.377Z,64.42
2018-10-04T00:03:13.929Z,65.03
2018-10-04T00:05:40.950Z,65.56
2018-10-04T00:08:07.454Z,65.33
2018-10-04T00:10:37.767Z,64.76
2018-10-04T00:13:04.476Z,64.56
2018-10-04T00:15:31.335Z,65.51
2018-10-04T00:17:58.035Z,65.33
2018-10-04T00:20:25.178Z,65.12
2018-10-04T00:22:52.658Z,65.39
2018-10-04T00:25:19.176Z,65.79
2018-10-04T00:27:46.018Z,64.50
2018-10-04T00:30:14.149Z,63.70
2018-10-04T00:32:43.529Z,63.85
2018-10-04T00:37:52.187Z,64.26
2018-10-04T00:40:18.740Z,63.40
2018-10-04T00:42:45.214Z,63.90
2018-10-04T00:45:11.717Z,63.99
2018-10-04T00:47:38.238Z,65.19
2018-10-04T00:50:05.185Z,64.74
2018-10-04T00:52:31.750Z,64.94
2018-10-04T00:54:58.216Z,64.52
2018-10-04T00:57:24.779Z,64.62
2018-10-04T00:59:52.508Z,64.55
2018-10-04T01:02:18.987Z,64.05
2018-10-04T01:04:45.610Z,64.25
2018-10-04T01:07:12.588Z,63.14
2018-10-04T01:09:39.107Z,63.51
2018-10-04T01:12:05.728Z,63.79
2018-10-04T01:14:32.204Z,62.87
2018-10-04T01:16:58.716Z,63.62
2018-10-04T01:19:25.335Z,64.79
2018-10-04T01:21:52.235Z,64.52
2018-10-04T01:24:18.756Z,64.83
2018-10-04T01:26:45.233Z,63.79
2018-10-04T01:29:11.756Z,63.69
2018-10-04T01:31:38.248Z,63.02
2018-10-04T01:34:05.021Z,63.43
2018-10-04T01:36:31.711Z,63.73
2018-10-04T01:38:58.299Z,64.63
2018-10-04T01:41:24.962Z,64.87
2018-10-04T01:43:51.443Z,65.36
2018-10-04T01:46:17.968Z,66.96
2018-10-04T01:48:44.491Z,66.78
2018-10-04T01:51:11.253Z,66.75
2018-10-04T01:53:37.773Z,65.70
2018-10-04T01:56:04.361Z,65.44
2018-10-04T01:58:30.852Z,65.80
2018-10-04T02:00:58.569Z,66.06
2018-10-04T02:03:25.553Z,66.60
2018-10-04T02:05:52.131Z,66.83
2018-10-04T02:08:18.658Z,65.93
2018-10-04T02:10:45.494Z,65.29
2018-10-04T02:13:12.041Z,64.23
2018-10-04T02:15:38.704Z,63.72
2018-10-04T02:18:05.377Z,63.26
2018-10-04T02:20:31.877Z,64.29
2018-10-04T02:22:58.467Z,65.16
2018-10-04T02:25:25.103Z,65.92
2018-10-04T02:27:51.691Z,65.91
2018-10-04T02:30:18.195Z,66.04
2018-10-04T02:32:44.722Z,64.74
2018-10-04T02:35:11.261Z,65.03
2018-10-04T02:37:37.763Z,65.70
2018-10-04T02:40:04.752Z,65.98
2018-10-04T02:42:31.406Z,65.03
2018-10-04T02:44:57.893Z,64.76
2018-10-04T02:47:24.445Z,65.07
2018-10-04T02:49:50.965Z,65.06
2018-10-04T02:52:17.457Z,65.57
2018-10-04T02:54:44.050Z,65.54
2018-10-04T02:57:10.615Z,65.90
2018-10-04T02:59:37.995Z,66.76
2018-10-04T03:02:04.649Z,66.05
2018-10-04T03:04:31.313Z,66.45
2018-10-04T03:06:57.813Z,66.28
2018-10-04T03:09:24.279Z,66.10
2018-10-04T03:11:50.837Z,65.09
2018-10-04T03:14:17.508Z,65.31
2018-10-04T03:16:43.996Z,66.59
2018-10-04T03:21:44.417Z,67.97
2018-10-04T03:24:11.057Z,68.47
2018-10-04T03:26:38.707Z,67.32
2018-10-04T03:29:05.942Z,67.52
2018-10-04T03:34:05.439Z,65.41
2018-10-04T03:36:32.707Z,64.51
2018-10-04T03:39:00.075Z,64.86
2018-10-04T03:41:26.744Z,64.97
2018-10-04T03:43:53.406Z,65.66
2018-10-04T03:46:20.589Z,65.77
2018-10-04T03:48:47.942Z,65.69
2018-10-04T03:51:15.223Z,65.81
2018-10-04T03:53:42.521Z,66.40
2018-10-04T03:56:10.540Z,66.18
2018-10-04T03:58:37.745Z,65.99
2018-10-04T04:01:05.673Z,67.27
2018-10-04T04:03:33.275Z,66.95
2018-10-04T04:06:01.195Z,66.35
2018-10-04T04:08:28.295Z,66.05
2018-10-04T04:10:54.951Z,65.21
2018-10-04T04:13:21.442Z,66.67
2018-10-04T04:15:48.573Z,66.43
2018-10-04T04:18:15.498Z,65.69
2018-10-04T04:20:42.057Z,65.61
2018-10-04T04:23:09.154Z,64.93
2018-10-04T04:25:35.848Z,65.14
2018-10-04T04:28:02.401Z,64.94
2018-10-04T04:30:29.125Z,64.95
2018-10-04T04:32:56.151Z,65.21
2018-10-04T04:35:22.666Z,66.34
2018-10-04T04:37:49.210Z,66.82
2018-10-04T04:40:15.872Z,66.32
2018-10-04T04:42:43.774Z,65.69
2018-10-04T04:45:11.082Z,66.14
2018-10-04T04:47:39.527Z,67.42
2018-10-04T04:50:06.787Z,67.24
2018-10-04T04:52:33.427Z,67.27
2018-10-04T04:55:00.398Z,66.81
2018-10-04T04:57:27.548Z,66.33
2018-10-04T04:59:55.589Z,66.15
2018-10-04T05:02:22.095Z,65.92
2018-10-04T05:04:49.126Z,66.06
2018-10-04T05:07:15.848Z,67.01
2018-10-04T05:09:42.447Z,65.63
2018-10-04T05:12:08.961Z,65.88
2018-10-04T05:14:35.976Z,65.36
2018-10-04T05:17:03.987Z,64.57
2018-10-04T05:19:31.227Z,65.34
2018-10-04T05:21:58.545Z,64.80
2018-10-04T05:24:25.532Z,64.74
2018-10-04T05:26:54.025Z,64.44
2018-10-04T05:29:20.502Z,64.69
2018-10-04T05:31:47.671Z,65.04
2018-10-04T05:34:14.806Z,64.77
2018-10-04T05:36:41.435Z,64.82
2018-10-04T05:39:08.286Z,64.70
2018-10-04T05:41:36.699Z,64.36
2018-10-04T05:44:03.365Z,65.27
2018-10-04T05:46:30.063Z,64.93
2018-10-04T05:48:56.857Z,64.48
2018-10-04T05:51:23.458Z,64.58
2018-10-04T05:53:49.977Z,64.35
2018-10-04T05:56:17.262Z,64.11
2018-10-04T05:58:44.076Z,64.29
2018-10-04T06:01:11.132Z,63.82
2018-10-04T06:03:38.645Z,63.94
2018-10-04T06:06:08.669Z,64.56
2018-10-04T06:08:37.885Z,65.19
2018-10-04T06:11:04.433Z,65.11
2018-10-04T06:13:30.976Z,63.91
2018-10-04T06:15:57.487Z,63.06
2018-10-04T06:18:24.070Z,63.50
2018-10-04T06:23:22.646Z,62.04
2018-10-04T06:25:49.232Z,62.17
2018-10-04T06:28:17.363Z,63.20
2018-10-04T06:30:44.272Z,62.30
2018-10-04T06:33:10.735Z,62.47
2018-10-04T06:35:38.542Z,62.00
2018-10-04T06:38:05.892Z,61.00
2018-10-04T06:40:32.566Z,60.69
2018-10-04T06:42:59.713Z,61.23
2018-10-04T06:45:26.339Z,61.07
2018-10-04T06:47:52.957Z,60.20
2018-10-04T06:50:20.186Z,59.59
2018-10-04T06:52:48.261Z,59.78
2018-10-04T06:55:15.198Z,59.72
2018-10-04T06:57:42.790Z,60.37
2018-10-04T07:00:11.070Z,58.49
2018-10-04T07:02:38.469Z,59.37
2018-10-04T07:05:05.955Z,59.88
2018-10-04T07:07:32.656Z,58.21
2018-10-04T07:10:00.380Z,58.75
2018-10-04T07:12:27.890Z,58.47
2018-10-04T07:14:54.433Z,58.39
2018-10-04T07:17:20.970Z,57.70
2018-10-04T07:19:48.083Z,56.86
2018-10-04T07:22:14.613Z,56.69
2018-10-04T07:24:41.812Z,56.87
2018-10-04T07:27:09.604Z,55.48
2018-10-04T07:29:39.380Z,56.27
2018-10-04T07:32:05.852Z,55.73
2018-10-04T07:34:33.330Z,55.78
2018-10-04T07:37:01.089Z,55.45
2018-10-04T07:39:27.597Z,55.44
2018-10-04T07:41:55.920Z,54.88
2018-10-04T07:44:22.759Z,54.50
2018-10-04T07:46:49.276Z,53.29
2018-10-04T07:49:15.841Z,53.70
2018-10-04T07:51:42.387Z,53.71
2018-10-04T07:54:10.049Z,53.13
2018-10-04T07:56:36.892Z,52.02
2018-10-04T07:59:04.461Z,52.86
2018-10-04T08:01:31.998Z,52.21
2018-10-04T08:03:59.494Z,50.65
2018-10-04T08:06:27.900Z,50.74
2018-10-04T08:08:55.014Z,51.33
2018-10-04T08:11:21.541Z,51.93
2018-10-04T08:13:48.313Z,50.54
2018-10-04T08:16:15.039Z,50.83
2018-10-04T08:18:44.194Z,50.00
2018-10-04T08:21:11.372Z,49.47
2018-10-04T08:23:38.661Z,50.75
2018-10-04T08:26:05.824Z,50.95
2018-10-04T08:28:32.431Z,51.13
2018-10-04T08:30:58.953Z,49.87
2018-10-04T08:33:26.077Z,48.76
2018-10-04T08:35:53.293Z,49.27
2018-10-04T08:38:20.026Z,49.49
2018-10-04T08:40:47.369Z,49.43
2018-10-04T08:43:14.089Z,49.32
2018-10-04T08:45:43.343Z,47.59
2018-10-04T08:48:10.185Z,48.24
2018-10-04T08:50:36.826Z,48.83
2018-10-04T08:53:03.356Z,47.02
2018-10-04T08:55:29.953Z,47.85
2018-10-04T08:57:57.711Z,47.88
2018-10-04T09:00:25.127Z,47.38
2018-10-04T09:02:51.655Z,46.22
2018-10-04T09:05:18.431Z,46.36
2018-10-04T09:07:45.085Z,46.12
2018-10-04T09:10:12.880Z,46.01
2018-10-04T09:12:39.787Z,43.81
2018-10-04T09:15:07.113Z,45.08
2018-10-04T09:17:34.402Z,42.74
2018-10-04T09:20:01.148Z,43.59
2018-10-04T09:22:28.844Z,43.11
2018-10-04T09:24:55.372Z,42.16
2018-10-04T09:27:23.320Z,44.31
2018-10-04T09:29:49.970Z,43.83
2018-10-04T09:32:16.522Z,41.92
2018-10-04T09:34:43.059Z,43.83
2018-10-04T09:37:09.998Z,43.77
2018-10-04T09:39:36.525Z,42.71
2018-10-04T09:42:03.243Z,43.23
2018-10-04T09:44:30.900Z,43.80
2018-10-04T09:46:58.557Z,43.21
2018-10-04T09:49:25.318Z,42.82
2018-10-04T09:51:52.526Z,41.27
2018-10-04T09:54:19.312Z,42.21
2018-10-04T09:56:45.868Z,43.38
2018-10-04T09:59:12.848Z,42.92
2018-10-04T10:01:40.407Z,41.00
2018-10-04T10:04:07.793Z,41.78
2018-10-04T10:06:34.290Z,40.83
2018-10-04T10:09:01.966Z,42.22
2018-10-04T10:14:02.419Z,40.18
2018-10-04T10:16:30.114Z,38.09
2018-10-04T10:18:57.882Z,41.07
2018-10-04T10:21:24.442Z,39.60
2018-10-04T10:26:23.842Z,41.10
2018-10-04T10:28:50.520Z,39.93
2018-10-04T10:31:18.473Z,40.05
2018-10-04T10:33:44.997Z,39.85
2018-10-04T10:36:11.748Z,39.60
2018-10-04T10:38:39.762Z,37.86
2018-10-04T10:41:07.057Z,37.21
2018-10-04T10:43:34.924Z,39.11
2018-10-04T10:46:02.606Z,36.14
2018-10-04T10:48:29.096Z,37.00
2018-10-04T10:50:55.750Z,36.98
2018-10-04T10:53:22.499Z,36.20
2018-10-04T10:55:49.243Z,37.04
2018-10-04T10:58:15.885Z,36.61
2018-10-04T11:00:43.113Z,37.38
2018-10-04T11:03:10.712Z,39.28
2018-10-04T11:05:37.330Z,37.12
2018-10-04T11:08:05.195Z,38.24
2018-10-04T11:10:38.462Z,36.13
2018-10-04T11:12:58.732Z,36.12
2018-10-04T11:15:26.294Z,37.21
2018-10-04T11:17:53.697Z,37.88
2018-10-04T11:20:20.846Z,38.28
2018-10-04T11:22:48.448Z,37.40
2018-10-04T11:25:16.631Z,37.47
2018-10-04T11:27:43.674Z,36.32
2018-10-04T11:30:11.379Z,36.16
2018-10-04T11:32:38.560Z,38.21
2018-10-04T11:35:05.390Z,38.10
2018-10-04T11:37:31.910Z,38.84
2018-10-04T11:39:58.373Z,38.58
2018-10-04T11:42:24.927Z,37.88
2018-10-04T11:44:52.072Z,38.22
2018-10-04T11:47:19.840Z,37.46
2018-10-04T11:49:46.988Z,37.87
2018-10-04T11:52:13.976Z,35.45
2018-10-04T11:54:40.593Z,35.13
2018-10-04T11:57:07.420Z,34.30
2018-10-04T11:59:34.502Z,35.04
2018-10-04T12:02:01.637Z,33.52
2018-10-04T12:04:29.038Z,33.38
2018-10-04T12:06:55.621Z,33.47
2018-10-04T12:09:22.297Z,35.25
2018-10-04T12:11:50.305Z,33.48
2018-10-04T12:14:18.035Z,34.05
2018-10-04T12:16:45.086Z,36.02
2018-10-04T12:19:13.111Z,36.71
2018-10-04T12:21:40.351Z,37.19
2018-10-04T12:24:07.461Z,33.80
2018-10-04T12:26:35.144Z,35.44
2018-10-04T12:29:02.490Z,36.00
2018-10-04T12:31:29.134Z,36.28
2018-10-04T12:33:56.368Z,35.31
2018-10-04T12:36:23.971Z,34.54
2018-10-04T12:38:50.489Z,33.93
2018-10-04T12:41:17.140Z,34.10
2018-10-04T12:43:44.395Z,34.99
2018-10-04T12:46:11.762Z,34.88
2018-10-04T12:48:38.493Z,33.12
2018-10-04T12:51:05.848Z,35.18
2018-10-04T12:53:32.491Z,33.54
2018-10-04T12:55:59.792Z,34.71
2018-10-04T12:58:28.316Z,32.68
2018-10-04T13:00:54.962Z,31.71
2018-10-04T13:03:21.712Z,33.11
2018-10-04T13:05:48.240Z,34.33
2018-10-04T13:08:14.832Z,33.94
2018-10-04T13:10:41.493Z,32.80
2018-10-04T13:13:08.777Z,33.69
2018-10-04T13:15:36.239Z,33.28
2018-10-04T13:18:02.827Z,34.14
2018-10-04T13:20:30.073Z,32.91
2018-10-04T13:22:56.698Z,33.24
2018-10-04T13:25:23.341Z,32.36
2018-10-04T13:27:51.839Z,32.01
2018-10-04T13:30:18.401Z,32.18
2018-10-04T13:32:44.860Z,30.48
2018-10-04T13:35:11.593Z,32.31
2018-10-04T13:37:38.180Z,32.27
2018-10-04T13:40:05.174Z,31.71
2018-10-04T13:42:31.653Z,31.76
2018-10-04T13:44:58.129Z,32.71
2018-10-04T13:47:24.931Z,31.49
2018-10-04T13:49:51.436Z,31.21
2018-10-04T13:52:18.579Z,30.46
2018-10-04T13:54:45.750Z,31.85
2018-10-04T13:57:12.257Z,31.95
2018-10-04T13:59:38.980Z,32.41
2018-10-04T14:02:07.613Z,33.27
2018-10-04T14:04:34.720Z,31.99
2018-10-04T14:07:01.886Z,31.72
2018-10-04T14:09:28.395Z,31.97
2018-10-04T14:11:56.349Z,32.17
2018-10-04T14:14:23.382Z,32.31
2018-10-04T14:16:50.422Z,33.64
2018-10-04T14:19:16.951Z,34.61
2018-10-04T14:21:43.659Z,33.79
2018-10-04T14:24:11.295Z,33.53
2018-10-04T14:26:38.662Z,33.29
2018-10-04T14:29:05.803Z,34.68
2018-10-04T14:31:32.548Z,34.02
2018-10-04T14:34:00.628Z,33.32
2018-10-04T14:36:27.843Z,33.99
2018-10-04T14:38:54.891Z,34.04
2018-10-04T14:41:21.453Z,32.95
2018-10-04T14:43:47.928Z,33.60
2018-10-04T14:46:15.196Z,32.94
2018-10-04T14:48:41.917Z,34.19
2018-10-04T14:51:09.974Z,33.97
2018-10-04T14:53:37.288Z,34.89
2018-10-04T14:56:04.376Z,34.04
2018-10-04T14:58:31.119Z,34.48
2018-10-04T15:00:57.775Z,35.76
2018-10-04T15:03:25.033Z,36.56
2018-10-04T15:05:51.669Z,35.40
2018-10-04T15:08:18.155Z,35.39
2018-10-04T15:10:44.924Z,36.17
2018-10-04T15:13:11.394Z,34.70
2018-10-04T15:15:38.607Z,34.82
2018-10-04T15:20:37.565Z,36.67
2018-10-04T15:23:04.157Z,35.50
2018-10-04T15:25:30.809Z,37.03
2018-10-04T15:27:57.291Z,37.14
2018-10-04T15:30:23.845Z,37.70
2018-10-04T15:32:50.624Z,37.99
2018-10-04T15:35:19.121Z,37.14
2018-10-04T15:37:46.247Z,37.32
2018-10-04T15:40:14.017Z,38.36
2018-10-04T15:42:40.742Z,37.35
2018-10-04T15:45:09.787Z,38.14
2018-10-04T15:47:36.888Z,37.55
2018-10-04T15:50:03.465Z,39.01
2018-10-04T15:52:30.001Z,38.66
2018-10-04T15:54:56.558Z,39.20
2018-10-04T15:57:23.890Z,40.56
2018-10-04T15:59:51.046Z,40.00
2018-10-04T16:02:17.501Z,39.57
2018-10-04T16:04:44.981Z,40.06
2018-10-04T16:07:12.286Z,40.80
2018-10-04T16:09:39.288Z,41.19
2018-10-04T16:12:05.809Z,42.11
2018-10-04T16:14:32.538Z,42.95
2018-10-04T16:16:59.306Z,43.54
2018-10-04T16:19:28.473Z,43.49
2018-10-04T16:21:55.052Z,44.70
2018-10-04T16:24:21.586Z,45.68
2018-10-04T16:26:48.799Z,45.70
2018-10-04T16:29:16.906Z,46.96
2018-10-04T16:31:43.424Z,46.63
2018-10-04T16:36:41.891Z,48.33
2018-10-04T16:39:08.344Z,48.37
2018-10-04T16:41:34.877Z,48.39
2018-10-04T16:44:01.452Z,49.04
2018-10-04T16:46:28.626Z,48.65
2018-10-04T16:48:56.262Z,48.22
2018-10-04T16:51:23.389Z,49.30
2018-10-04T16:53:50.148Z,48.98
2018-10-04T16:56:16.765Z,49.43
2018-10-04T17:01:16.571Z,49.51
2018-10-04T17:03:43.690Z,50.36
2018-10-04T17:06:13.085Z,51.19
2018-10-04T17:08:39.653Z,50.71
2018-10-04T17:11:06.294Z,50.87
2018-10-04T17:13:32.946Z,51.03
2018-10-04T17:15:59.474Z,50.83
2018-10-04T17:18:26.191Z,50.44
2018-10-04T17:20:52.967Z,50.52
2018-10-04T17:23:21.362Z,50.65
2018-10-04T17:25:47.933Z,51.27
2018-10-04T17:28:14.471Z,51.16
2018-10-04T17:30:41.339Z,51.45
2018-10-04T17:33:09.059Z,51.63
2018-10-04T17:35:35.789Z,52.55
2018-10-04T17:38:03.449Z,53.16
2018-10-04T17:40:30.682Z,53.44
2018-10-04T17:42:58.456Z,54.11
2018-10-04T17:45:26.541Z,53.81
2018-10-04T17:47:53.431Z,53.10
2018-10-04T17:50:20.814Z,54.32
2018-10-04T17:52:47.349Z,53.56
2018-10-04T17:55:14.788Z,54.49
2018-10-04T17:57:41.317Z,53.11
2018-10-04T18:00:08.408Z,53.49
2018-10-04T18:02:34.886Z,53.79
2018-10-04T18:05:01.419Z,54.58
2018-10-04T18:07:27.945Z,54.62
2018-10-04T18:09:54.454Z,54.10
2018-10-04T18:12:20.933Z,54.71
2018-10-04T18:14:48.070Z,53.38
2018-10-04T18:17:14.661Z,53.49
2018-10-04T18:19:46.135Z,53.60
2018-10-04T18:22:13.779Z,54.14
2018-10-04T18:24:40.928Z,53.26
2018-10-04T18:27:07.751Z,54.09
2018-10-04T18:29:36.035Z,53.48
2018-10-04T18:32:05.417Z,53.97
2018-10-04T18:34:32.006Z,55.24
2018-10-04T18:36:59.385Z,54.75
2018-10-04T18:39:26.000Z,54.81
2018-10-04T18:41:53.108Z,54.46
2018-10-04T18:44:20.326Z,55.16
2018-10-04T18:46:46.953Z,54.39
2018-10-04T18:49:13.515Z,55.04
2018-10-04T18:51:40.809Z,55.46
2018-10-04T18:54:07.302Z,55.93
2018-10-04T18:56:35.428Z,55.73
2018-10-04T18:59:02.590Z,56.26
2018-10-04T19:01:30.410Z,55.66
2018-10-04T19:03:57.573Z,56.32
2018-10-04T19:06:25.926Z,56.68
2018-10-04T19:08:53.682Z,56.44
2018-10-04T19:11:21.012Z,56.42
2018-10-04T19:13:47.492Z,56.68
2018-10-04T19:16:15.176Z,56.88
2018-10-04T19:18:41.687Z,57.79
2018-10-04T19:21:09.762Z,58.35
2018-10-04T19:23:37.004Z,58.11
2018-10-04T19:26:05.439Z,58.43
2018-10-04T19:28:32.822Z,58.04
2018-10-04T19:31:00.005Z,58.29
2018-10-04T19:33:28.224Z,58.50
2018-10-04T19:35:55.501Z,57.85
2018-10-04T19:38:22.630Z,59.29
2018-10-04T19:40:49.394Z,59.68
2018-10-04T19:43:17.188Z,59.68
2018-10-04T19:45:44.848Z,59.99
2018-10-04T19:48:12.384Z,60.13
2018-10-04T19:50:38.852Z,58.65
2018-10-04T19:53:05.876Z,59.40
2018-10-04T19:55:32.983Z,59.73
2018-10-04T19:58:00.534Z,59.37
2018-10-04T20:00:27.006Z,59.86
2018-10-04T20:02:54.147Z,59.55
2018-10-04T20:05:21.366Z,59.44
2018-10-04T20:07:48.936Z,59.37
2018-10-04T20:10:15.651Z,59.05
2018-10-04T20:12:42.186Z,59.17
2018-10-04T20:15:10.478Z,59.66
2018-10-04T20:17:37.622Z,60.07
2018-10-04T20:20:04.336Z,59.71
2018-10-04T20:22:32.431Z,59.65
2018-10-04T20:24:59.577Z,59.25
2018-10-04T20:27:27.174Z,61.07
2018-10-04T20:29:53.657Z,60.39
2018-10-04T20:32:21.034Z,60.59
2018-10-04T20:34:47.845Z,60.30
2018-10-04T20:37:15.366Z,60.10
2018-10-04T20:39:43.851Z,60.38
2018-10-04T20:42:11.017Z,60.63
2018-10-04T20:44:38.505Z,60.68
2018-10-04T20:47:05.934Z,60.14
2018-10-04T20:49:33.148Z,59.83
2018-10-04T20:52:00.660Z,60.03
2018-10-04T20:54:27.190Z,60.31
2018-10-04T20:56:53.782Z,61.03
2018-10-04T20:59:21.266Z,61.82
2018-10-04T21:01:48.851Z,61.65
2018-10-04T21:04:16.277Z,61.69
2018-10-04T21:06:43.363Z,61.18
2018-10-04T21:09:13.525Z,61.34
2018-10-04T21:11:41.341Z,61.34
2018-10-04T21:14:08.524Z,61.88
2018-10-04T21:16:36.962Z,61.42
2018-10-04T21:19:04.945Z,61.82
2018-10-04T21:21:32.966Z,61.73
2018-10-04T21:24:01.463Z,63.21
2018-10-04T21:26:28.735Z,61.73
2018-10-04T21:28:55.983Z,61.79
2018-10-04T21:31:22.552Z,62.03
2018-10-04T21:33:49.009Z,61.84
2018-10-04T21:36:15.694Z,62.06
2018-10-04T21:38:42.381Z,62.11
2018-10-04T21:41:10.861Z,62.23
2018-10-04T21:43:37.466Z,62.15
2018-10-04T21:46:04.056Z,61.85
2018-10-04T21:48:33.779Z,61.59
2018-10-04T21:51:01.742Z,62.73
2018-10-04T21:53:28.274Z,62.50
2018-10-04T21:55:54.822Z,62.20
2018-10-04T21:58:22.583Z,62.60
2018-10-04T22:00:49.319Z,63.21
2018-10-04T22:03:16.001Z,63.14
2018-10-04T22:05:42.461Z,63.39
2018-10-04T22:08:09.236Z,62.86
2018-10-04T22:10:35.836Z,62.43
2018-10-04T22:13:03.021Z,62.74
2018-10-04T22:15:30.392Z,62.73
2018-10-04T22:17:57.536Z,63.40
2018-10-04T22:20:24.020Z,63.25
2018-10-04T22:22:50.641Z,61.96
2018-10-04T22:25:17.798Z,61.82
2018-10-04T22:27:44.933Z,62.80
2018-10-04T22:30:11.620Z,62.06
2018-10-04T22:32:38.077Z,62.52
2018-10-04T22:35:05.781Z,62.81
2018-10-04T22:37:32.293Z,62.19
2018-10-04T22:39:58.773Z,62.38
2018-10-04T22:42:26.102Z,63.31
2018-10-04T22:44:52.669Z,63.38
2018-10-04T22:47:20.853Z,63.33
2018-10-04T22:49:47.375Z,63.99
2018-10-04T22:52:15.016Z,63.65
2018-10-04T22:54:42.067Z,63.71
2018-10-04T22:57:09.231Z,63.82
2018-10-04T22:59:35.784Z,64.24
2018-10-04T23:02:03.039Z,64.34
2018-10-04T23:04:30.446Z,65.25
2018-10-04T23:06:58.090Z,65.29
2018-10-04T23:09:24.601Z,64.90
2018-10-04T23:11:51.206Z,64.71
2018-10-04T23:14:17.734Z,64.11
2018-10-04T23:16:44.387Z,63.38
2018-10-04T23:19:10.877Z,63.78
2018-10-04T23:21:38.104Z,63.54
2018-10-04T23:24:04.679Z,64.03
2018-10-04T23:26:31.745Z,64.16
2018-10-04T23:28:58.791Z,63.01
2018-10-04T23:31:25.938Z,63.76
2018-10-04T23:33:53.616Z,63.37
2018-10-04T23:36:21.225Z,63.24
2018-10-04T23:38:48.563Z,63.91
2018-10-04T23:41:15.869Z,63.97
2018-10-04T23:43:42.998Z,63.68
2018-10-04T23:46:10.180Z,64.91
2018-10-04T23:48:36.674Z,65.18
2018-10-04T23:51:03.920Z,64.51
2018-10-04T23:53:31.199Z,64.76
2018-10-04T23:55:58.814Z,64.39
2018-10-04T23:58:26.153Z,64.98
